sensor_id;sensor_type;location;lat;lon;timestamp;P1;durP1;ratioP1;P2;durP2;ratioP2
28335;SDS011;15592;53.656;7.276;2023-09-19T00:00:41;6.15;;;2.05;;
28335;SDS011;15592;53.656;7.276;2023-09-19T00:03:09;10.77;;;2.65;;
28335;SDS011;15592;53.656;7.276;2023-09-19T00:05:35;12.93;;;2.65;;
28335;SDS011;15592;53.656;7.276;2023-09-19T00:08:03;7.97;;;2.13;;
28335;SDS011;15592;53.656;7.276;2023-09-19T00:10:30;8.65;;;2.25;;
28335;SDS011;15592;53.656;7.276;2023-09-19T00:12:59;9.63;;;2.65;;
28335;SDS011;15592;53.656;7.276;2023-09-19T00:15:26;7.80;;;2.28;;
28335;SDS011;15592;53.656;7.276;2023-09-19T00:17:56;6.00;;;1.70;;
28335;SDS011;15592;53.656;7.276;2023-09-19T00:20:22;6.05;;;2.10;;
28335;SDS011;15592;53.656;7.276;2023-09-19T00:22:49;8.75;;;2.10;;
28335;SDS011;15592;53.656;7.276;2023-09-19T00:25:18;5.68;;;2.38;;
28335;SDS011;15592;53.656;7.276;2023-09-19T00:27:44;11.93;;;2.28;;
28335;SDS011;15592;53.656;7.276;2023-09-19T00:30:10;8.98;;;2.55;;
28335;SDS011;15592;53.656;7.276;2023-09-19T00:32:49;10.25;;;2.45;;
28335;SDS011;15592;53.656;7.276;2023-09-19T00:37:51;8.93;;;2.15;;
28335;SDS011;15592;53.656;7.276;2023-09-19T00:40:17;18.45;;;2.72;;
28335;SDS011;15592;53.656;7.276;2023-09-19T00:42:43;8.45;;;1.95;;
28335;SDS011;15592;53.656;7.276;2023-09-19T00:45:10;7.65;;;1.75;;
28335;SDS011;15592;53.656;7.276;2023-09-19T00:47:40;7.05;;;2.00;;
28335;SDS011;15592;53.656;7.276;2023-09-19T00:50:09;7.55;;;2.00;;
28335;SDS011;15592;53.656;7.276;2023-09-19T00:52:38;9.05;;;1.98;;
28335;SDS011;15592;53.656;7.276;2023-09-19T00:55:06;9.00;;;2.17;;
28335;SDS011;15592;53.656;7.276;2023-09-19T00:57:36;5.53;;;1.70;;
28335;SDS011;15592;53.656;7.276;2023-09-19T01:00:05;8.38;;;2.00;;
28335;SDS011;15592;53.656;7.276;2023-09-19T01:02:32;7.65;;;1.92;;
28335;SDS011;15592;53.656;7.276;2023-09-19T01:04:59;8.10;;;2.33;;
28335;SDS011;15592;53.656;7.276;2023-09-19T01:07:26;10.70;;;1.88;;
28335;SDS011;15592;53.656;7.276;2023-09-19T01:09:55;10.25;;;2.67;;
28335;SDS011;15592;53.656;7.276;2023-09-19T01:12:26;12.27;;;2.65;;
28335;SDS011;15592;53.656;7.276;2023-09-19T01:15:32;11.82;;;2.40;;
28335;SDS011;15592;53.656;7.276;2023-09-19T01:21:01;9.50;;;2.47;;
28335;SDS011;15592;53.656;7.276;2023-09-19T01:26:30;12.68;;;2.80;;
28335;SDS011;15592;53.656;7.276;2023-09-19T01:29:38;7.60;;;1.70;;
28335;SDS011;15592;53.656;7.276;2023-09-19T01:32:01;9.07;;;2.58;;
28335;SDS011;15592;53.656;7.276;2023-09-19T01:37:12;7.53;;;2.00;;
28335;SDS011;15592;53.656;7.276;2023-09-19T01:39:39;7.60;;;2.08;;
28335;SDS011;15592;53.656;7.276;2023-09-19T01:47:56;18.30;;;2.67;;
28335;SDS011;15592;53.656;7.276;2023-09-19T01:51:10;14.93;;;2.45;;
28335;SDS011;15592;53.656;7.276;2023-09-19T01:53:41;11.75;;;2.75;;
28335;SDS011;15592;53.656;7.276;2023-09-19T01:56:36;9.07;;;2.92;;
28335;SDS011;15592;53.656;7.276;2023-09-19T01:59:28;14.45;;;3.15;;
28335;SDS011;15592;53.656;7.276;2023-09-19T02:02:00;11.73;;;3.13;;
28335;SDS011;15592;53.656;7.276;2023-09-19T02:04:27;10.55;;;2.50;;
28335;SDS011;15592;53.656;7.276;2023-09-19T02:06:53;10.25;;;2.55;;
28335;SDS011;15592;53.656;7.276;2023-09-19T02:09:19;11.13;;;2.60;;
28335;SDS011;15592;53.656;7.276;2023-09-19T02:11:45;10.50;;;2.40;;
28335;SDS011;15592;53.656;7.276;2023-09-19T02:14:11;10.27;;;2.65;;
28335;SDS011;15592;53.656;7.276;2023-09-19T02:16:37;7.82;;;2.58;;
28335;SDS011;15592;53.656;7.276;2023-09-19T02:19:02;10.13;;;2.75;;
28335;SDS011;15592;53.656;7.276;2023-09-19T02:21:31;9.45;;;2.22;;
28335;SDS011;15592;53.656;7.276;2023-09-19T02:23:57;9.90;;;3.15;;
28335;SDS011;15592;53.656;7.276;2023-09-19T02:26:23;13.15;;;3.00;;
28335;SDS011;15592;53.656;7.276;2023-09-19T02:28:49;8.27;;;2.20;;
28335;SDS011;15592;53.656;7.276;2023-09-19T02:31:15;10.43;;;2.53;;
28335;SDS011;15592;53.656;7.276;2023-09-19T02:33:41;11.98;;;2.80;;
28335;SDS011;15592;53.656;7.276;2023-09-19T02:36:08;12.85;;;2.85;;
28335;SDS011;15592;53.656;7.276;2023-09-19T02:38:34;12.10;;;3.08;;
28335;SDS011;15592;53.656;7.276;2023-09-19T02:41:00;13.82;;;2.90;;
28335;SDS011;15592;53.656;7.276;2023-09-19T02:43:26;14.55;;;3.08;;
28335;SDS011;15592;53.656;7.276;2023-09-19T02:45:52;12.18;;;2.75;;
28335;SDS011;15592;53.656;7.276;2023-09-19T02:48:22;15.68;;;2.90;;
28335;SDS011;15592;53.656;7.276;2023-09-19T02:50:51;9.98;;;2.50;;
28335;SDS011;15592;53.656;7.276;2023-09-19T02:53:16;11.70;;;2.42;;
28335;SDS011;15592;53.656;7.276;2023-09-19T02:55:42;12.73;;;3.17;;
28335;SDS011;15592;53.656;7.276;2023-09-19T02:58:08;8.07;;;2.55;;
28335;SDS011;15592;53.656;7.276;2023-09-19T03:00:36;13.52;;;3.00;;
28335;SDS011;15592;53.656;7.276;2023-09-19T03:03:02;9.85;;;2.78;;
28335;SDS011;15592;53.656;7.276;2023-09-19T03:05:29;9.98;;;2.47;;
28335;SDS011;15592;53.656;7.276;2023-09-19T03:07:57;8.05;;;2.25;;
28335;SDS011;15592;53.656;7.276;2023-09-19T03:10:25;13.18;;;2.97;;
28335;SDS011;15592;53.656;7.276;2023-09-19T03:12:53;9.75;;;2.83;;
28335;SDS011;15592;53.656;7.276;2023-09-19T03:15:19;13.90;;;2.70;;
28335;SDS011;15592;53.656;7.276;2023-09-19T03:17:46;16.80;;;2.75;;
28335;SDS011;15592;53.656;7.276;2023-09-19T03:20:12;9.13;;;2.30;;
28335;SDS011;15592;53.656;7.276;2023-09-19T03:22:39;11.13;;;3.33;;
28335;SDS011;15592;53.656;7.276;2023-09-19T03:25:05;10.85;;;2.90;;
28335;SDS011;15592;53.656;7.276;2023-09-19T03:27:36;9.30;;;2.15;;
28335;SDS011;15592;53.656;7.276;2023-09-19T03:30:03;10.30;;;2.70;;
28335;SDS011;15592;53.656;7.276;2023-09-19T03:32:36;8.60;;;2.28;;
28335;SDS011;15592;53.656;7.276;2023-09-19T03:35:08;12.48;;;2.17;;
28335;SDS011;15592;53.656;7.276;2023-09-19T03:37:36;18.27;;;3.15;;
28335;SDS011;15592;53.656;7.276;2023-09-19T03:40:02;12.30;;;2.78;;
28335;SDS011;15592;53.656;7.276;2023-09-19T03:42:30;13.32;;;2.88;;
28335;SDS011;15592;53.656;7.276;2023-09-19T03:44:56;8.18;;;2.17;;
28335;SDS011;15592;53.656;7.276;2023-09-19T03:47:22;6.65;;;2.17;;
28335;SDS011;15592;53.656;7.276;2023-09-19T03:49:48;10.82;;;2.78;;
28335;SDS011;15592;53.656;7.276;2023-09-19T03:52:13;6.88;;;2.35;;
28335;SDS011;15592;53.656;7.276;2023-09-19T03:54:40;13.32;;;2.35;;
28335;SDS011;15592;53.656;7.276;2023-09-19T03:57:06;10.05;;;2.80;;
28335;SDS011;15592;53.656;7.276;2023-09-19T03:59:32;14.23;;;2.50;;
28335;SDS011;15592;53.656;7.276;2023-09-19T04:01:58;10.55;;;2.72;;
28335;SDS011;15592;53.656;7.276;2023-09-19T04:04:24;11.43;;;2.67;;
28335;SDS011;15592;53.656;7.276;2023-09-19T04:06:53;9.52;;;2.40;;
28335;SDS011;15592;53.656;7.276;2023-09-19T04:09:19;9.00;;;2.33;;
28335;SDS011;15592;53.656;7.276;2023-09-19T04:11:44;8.43;;;2.00;;
28335;SDS011;15592;53.656;7.276;2023-09-19T04:14:10;8.98;;;2.53;;
28335;SDS011;15592;53.656;7.276;2023-09-19T04:16:35;8.65;;;2.47;;
28335;SDS011;15592;53.656;7.276;2023-09-19T04:19:01;9.93;;;2.35;;
28335;SDS011;15592;53.656;7.276;2023-09-19T04:21:28;10.05;;;2.42;;
28335;SDS011;15592;53.656;7.276;2023-09-19T04:23:54;9.30;;;2.10;;
28335;SDS011;15592;53.656;7.276;2023-09-19T04:26:20;8.82;;;1.98;;
28335;SDS011;15592;53.656;7.276;2023-09-19T04:28:46;4.97;;;1.95;;
28335;SDS011;15592;53.656;7.276;2023-09-19T04:31:12;7.05;;;2.63;;
28335;SDS011;15592;53.656;7.276;2023-09-19T04:33:39;6.70;;;2.50;;
28335;SDS011;15592;53.656;7.276;2023-09-19T04:36:04;9.20;;;2.25;;
28335;SDS011;15592;53.656;7.276;2023-09-19T04:38:32;9.65;;;2.50;;
28335;SDS011;15592;53.656;7.276;2023-09-19T04:40:58;13.70;;;2.03;;
28335;SDS011;15592;53.656;7.276;2023-09-19T04:43:24;8.63;;;1.85;;
28335;SDS011;15592;53.656;7.276;2023-09-19T04:45:50;10.10;;;2.42;;
28335;SDS011;15592;53.656;7.276;2023-09-19T04:48:16;7.65;;;2.00;;
28335;SDS011;15592;53.656;7.276;2023-09-19T04:50:42;8.60;;;2.65;;
28335;SDS011;15592;53.656;7.276;2023-09-19T04:53:08;8.00;;;2.05;;
28335;SDS011;15592;53.656;7.276;2023-09-19T04:55:34;11.15;;;2.50;;
28335;SDS011;15592;53.656;7.276;2023-09-19T04:58:00;14.70;;;2.40;;
28335;SDS011;15592;53.656;7.276;2023-09-19T05:00:25;8.88;;;2.60;;
28335;SDS011;15592;53.656;7.276;2023-09-19T05:02:54;7.70;;;1.90;;
28335;SDS011;15592;53.656;7.276;2023-09-19T05:05:22;10.15;;;2.33;;
28335;SDS011;15592;53.656;7.276;2023-09-19T05:07:48;10.80;;;2.30;;
28335;SDS011;15592;53.656;7.276;2023-09-19T05:10:17;10.30;;;2.15;;
28335;SDS011;15592;53.656;7.276;2023-09-19T05:12:53;10.95;;;2.70;;
28335;SDS011;15592;53.656;7.276;2023-09-19T05:18:42;9.80;;;2.35;;
28335;SDS011;15592;53.656;7.276;2023-09-19T05:21:13;10.07;;;1.95;;
28335;SDS011;15592;53.656;7.276;2023-09-19T05:23:54;10.18;;;2.80;;
28335;SDS011;15592;53.656;7.276;2023-09-19T05:26:25;9.25;;;2.30;;
28335;SDS011;15592;53.656;7.276;2023-09-19T05:28:53;11.38;;;2.20;;
28335;SDS011;15592;53.656;7.276;2023-09-19T05:31:30;8.68;;;2.67;;
28335;SDS011;15592;53.656;7.276;2023-09-19T05:34:04;9.32;;;2.63;;
28335;SDS011;15592;53.656;7.276;2023-09-19T05:36:31;11.90;;;2.40;;
28335;SDS011;15592;53.656;7.276;2023-09-19T05:38:57;11.88;;;2.33;;
28335;SDS011;15592;53.656;7.276;2023-09-19T05:41:22;9.63;;;2.22;;
28335;SDS011;15592;53.656;7.276;2023-09-19T05:43:49;12.48;;;2.88;;
28335;SDS011;15592;53.656;7.276;2023-09-19T05:46:15;10.65;;;2.10;;
28335;SDS011;15592;53.656;7.276;2023-09-19T05:48:41;8.40;;;1.73;;
28335;SDS011;15592;53.656;7.276;2023-09-19T05:54:19;12.70;;;2.47;;
28335;SDS011;15592;53.656;7.276;2023-09-19T05:57:30;9.80;;;2.67;;
28335;SDS011;15592;53.656;7.276;2023-09-19T05:59:59;8.85;;;2.97;;
28335;SDS011;15592;53.656;7.276;2023-09-19T06:02:33;7.35;;;2.05;;
28335;SDS011;15592;53.656;7.276;2023-09-19T06:05:04;8.10;;;1.95;;
28335;SDS011;15592;53.656;7.276;2023-09-19T06:10:17;7.22;;;1.77;;
28335;SDS011;15592;53.656;7.276;2023-09-19T06:12:43;11.38;;;2.55;;
28335;SDS011;15592;53.656;7.276;2023-09-19T06:15:09;12.27;;;2.63;;
28335;SDS011;15592;53.656;7.276;2023-09-19T06:17:40;9.10;;;2.22;;
28335;SDS011;15592;53.656;7.276;2023-09-19T06:20:16;10.80;;;3.33;;
28335;SDS011;15592;53.656;7.276;2023-09-19T06:22:42;10.80;;;2.92;;
28335;SDS011;15592;53.656;7.276;2023-09-19T06:25:10;11.35;;;2.35;;
28335;SDS011;15592;53.656;7.276;2023-09-19T06:27:37;13.07;;;2.95;;
28335;SDS011;15592;53.656;7.276;2023-09-19T06:30:09;9.82;;;2.25;;
28335;SDS011;15592;53.656;7.276;2023-09-19T06:32:44;11.60;;;2.85;;
28335;SDS011;15592;53.656;7.276;2023-09-19T06:35:10;14.63;;;2.80;;
28335;SDS011;15592;53.656;7.276;2023-09-19T06:37:37;12.30;;;2.88;;
28335;SDS011;15592;53.656;7.276;2023-09-19T06:40:08;7.13;;;2.67;;
28335;SDS011;15592;53.656;7.276;2023-09-19T06:42:41;7.95;;;2.40;;
28335;SDS011;15592;53.656;7.276;2023-09-19T06:45:08;10.85;;;2.20;;
28335;SDS011;15592;53.656;7.276;2023-09-19T06:47:36;8.82;;;2.42;;
28335;SDS011;15592;53.656;7.276;2023-09-19T06:50:02;10.77;;;2.45;;
28335;SDS011;15592;53.656;7.276;2023-09-19T06:52:28;9.70;;;2.28;;
28335;SDS011;15592;53.656;7.276;2023-09-19T06:54:54;12.13;;;2.38;;
28335;SDS011;15592;53.656;7.276;2023-09-19T06:57:20;10.40;;;2.58;;
28335;SDS011;15592;53.656;7.276;2023-09-19T06:59:45;14.30;;;2.85;;
28335;SDS011;15592;53.656;7.276;2023-09-19T07:02:11;11.18;;;2.55;;
28335;SDS011;15592;53.656;7.276;2023-09-19T07:04:39;7.18;;;2.35;;
28335;SDS011;15592;53.656;7.276;2023-09-19T07:07:04;14.73;;;2.58;;
28335;SDS011;15592;53.656;7.276;2023-09-19T07:09:30;10.05;;;2.60;;
28335;SDS011;15592;53.656;7.276;2023-09-19T07:11:57;11.63;;;2.30;;
28335;SDS011;15592;53.656;7.276;2023-09-19T07:14:23;11.23;;;2.78;;
28335;SDS011;15592;53.656;7.276;2023-09-19T07:16:49;12.40;;;2.92;;
28335;SDS011;15592;53.656;7.276;2023-09-19T07:19:15;8.45;;;2.42;;
28335;SDS011;15592;53.656;7.276;2023-09-19T07:21:41;8.27;;;2.75;;
28335;SDS011;15592;53.656;7.276;2023-09-19T07:24:07;8.38;;;2.30;;
28335;SDS011;15592;53.656;7.276;2023-09-19T07:26:33;15.48;;;3.00;;
28335;SDS011;15592;53.656;7.276;2023-09-19T07:28:59;8.05;;;2.25;;
28335;SDS011;15592;53.656;7.276;2023-09-19T07:31:27;13.32;;;2.67;;
28335;SDS011;15592;53.656;7.276;2023-09-19T07:33:53;11.85;;;2.40;;
28335;SDS011;15592;53.656;7.276;2023-09-19T07:36:19;13.40;;;3.03;;
28335;SDS011;15592;53.656;7.276;2023-09-19T07:38:45;11.35;;;3.00;;
28335;SDS011;15592;53.656;7.276;2023-09-19T07:41:10;8.57;;;2.60;;
28335;SDS011;15592;53.656;7.276;2023-09-19T07:43:36;13.68;;;2.70;;
28335;SDS011;15592;53.656;7.276;2023-09-19T07:46:06;13.00;;;2.50;;
28335;SDS011;15592;53.656;7.276;2023-09-19T07:51:04;7.68;;;2.38;;
28335;SDS011;15592;53.656;7.276;2023-09-19T07:56:06;14.40;;;3.38;;
28335;SDS011;15592;53.656;7.276;2023-09-19T07:58:34;11.52;;;2.53;;
28335;SDS011;15592;53.656;7.276;2023-09-19T08:01:04;10.18;;;2.78;;
28335;SDS011;15592;53.656;7.276;2023-09-19T08:03:31;12.30;;;2.63;;
28335;SDS011;15592;53.656;7.276;2023-09-19T08:05:57;14.00;;;2.80;;
28335;SDS011;15592;53.656;7.276;2023-09-19T08:08:23;11.18;;;2.40;;
28335;SDS011;15592;53.656;7.276;2023-09-19T08:10:55;8.93;;;2.38;;
28335;SDS011;15592;53.656;7.276;2023-09-19T08:13:24;17.80;;;3.00;;
28335;SDS011;15592;53.656;7.276;2023-09-19T08:15:51;10.77;;;2.40;;
28335;SDS011;15592;53.656;7.276;2023-09-19T08:18:20;10.25;;;2.58;;
28335;SDS011;15592;53.656;7.276;2023-09-19T08:20:49;13.20;;;2.35;;
28335;SDS011;15592;53.656;7.276;2023-09-19T08:23:15;10.10;;;2.15;;
28335;SDS011;15592;53.656;7.276;2023-09-19T08:25:43;7.95;;;2.35;;
28335;SDS011;15592;53.656;7.276;2023-09-19T08:28:09;12.43;;;2.60;;
28335;SDS011;15592;53.656;7.276;2023-09-19T08:30:37;10.55;;;2.60;;
28335;SDS011;15592;53.656;7.276;2023-09-19T08:33:05;12.05;;;2.80;;
28335;SDS011;15592;53.656;7.276;2023-09-19T08:35:32;11.93;;;2.40;;
28335;SDS011;15592;53.656;7.276;2023-09-19T08:37:58;14.32;;;3.28;;
28335;SDS011;15592;53.656;7.276;2023-09-19T08:40:29;14.77;;;3.30;;
28335;SDS011;15592;53.656;7.276;2023-09-19T08:42:58;11.95;;;3.30;;
28335;SDS011;15592;53.656;7.276;2023-09-19T08:45:25;11.68;;;2.78;;
28335;SDS011;15592;53.656;7.276;2023-09-19T08:48:10;15.02;;;3.08;;
28335;SDS011;15592;53.656;7.276;2023-09-19T08:50:58;10.35;;;2.50;;
28335;SDS011;15592;53.656;7.276;2023-09-19T08:53:42;14.20;;;2.90;;
28335;SDS011;15592;53.656;7.276;2023-09-19T08:56:29;8.95;;;2.47;;
28335;SDS011;15592;53.656;7.276;2023-09-19T08:59:02;13.75;;;3.30;;
28335;SDS011;15592;53.656;7.276;2023-09-19T09:01:29;11.05;;;2.97;;
28335;SDS011;15592;53.656;7.276;2023-09-19T09:03:57;17.42;;;2.40;;
28335;SDS011;15592;53.656;7.276;2023-09-19T09:06:24;11.85;;;3.15;;
28335;SDS011;15592;53.656;7.276;2023-09-19T09:08:50;12.93;;;2.95;;
28335;SDS011;15592;53.656;7.276;2023-09-19T09:11:19;10.07;;;2.43;;
28335;SDS011;15592;53.656;7.276;2023-09-19T09:13:46;14.27;;;3.50;;
28335;SDS011;15592;53.656;7.276;2023-09-19T09:16:13;19.40;;;3.15;;
28335;SDS011;15592;53.656;7.276;2023-09-19T09:18:42;14.73;;;2.88;;
28335;SDS011;15592;53.656;7.276;2023-09-19T09:21:09;9.10;;;2.67;;
28335;SDS011;15592;53.656;7.276;2023-09-19T09:23:40;13.07;;;3.10;;
28335;SDS011;15592;53.656;7.276;2023-09-19T09:26:06;12.50;;;3.38;;
28335;SDS011;15592;53.656;7.276;2023-09-19T09:28:32;11.93;;;2.50;;
28335;SDS011;15592;53.656;7.276;2023-09-19T09:31:04;9.40;;;3.10;;
28335;SDS011;15592;53.656;7.276;2023-09-19T09:33:34;12.75;;;2.97;;
28335;SDS011;15592;53.656;7.276;2023-09-19T09:36:01;13.45;;;3.30;;
28335;SDS011;15592;53.656;7.276;2023-09-19T09:38:29;9.93;;;2.63;;
28335;SDS011;15592;53.656;7.276;2023-09-19T09:41:08;11.20;;;3.15;;
28335;SDS011;15592;53.656;7.276;2023-09-19T09:43:41;13.75;;;3.28;;
28335;SDS011;15592;53.656;7.276;2023-09-19T09:49:06;7.78;;;2.50;;
28335;SDS011;15592;53.656;7.276;2023-09-19T09:51:44;8.63;;;2.47;;
28335;SDS011;15592;53.656;7.276;2023-09-19T09:54:24;13.15;;;2.95;;
28335;SDS011;15592;53.656;7.276;2023-09-19T09:57:07;10.85;;;3.00;;
28335;SDS011;15592;53.656;7.276;2023-09-19T09:59:52;11.23;;;3.28;;
28335;SDS011;15592;53.656;7.276;2023-09-19T10:02:27;12.65;;;3.25;;
28335;SDS011;15592;53.656;7.276;2023-09-19T10:04:57;11.50;;;3.40;;
28335;SDS011;15592;53.656;7.276;2023-09-19T10:07:33;12.90;;;2.63;;
28335;SDS011;15592;53.656;7.276;2023-09-19T10:10:08;13.80;;;3.15;;
28335;SDS011;15592;53.656;7.276;2023-09-19T10:12:42;12.73;;;3.45;;
28335;SDS011;15592;53.656;7.276;2023-09-19T10:15:11;14.32;;;3.10;;
28335;SDS011;15592;53.656;7.276;2023-09-19T10:17:40;7.72;;;2.38;;
28335;SDS011;15592;53.656;7.276;2023-09-19T10:20:17;6.05;;;2.50;;
28335;SDS011;15592;53.656;7.276;2023-09-19T10:23:01;14.70;;;3.28;;
28335;SDS011;15592;53.656;7.276;2023-09-19T10:25:39;13.65;;;3.35;;
28335;SDS011;15592;53.656;7.276;2023-09-19T10:28:07;14.55;;;3.67;;
28335;SDS011;15592;53.656;7.276;2023-09-19T10:30:38;9.95;;;2.90;;
28335;SDS011;15592;53.656;7.276;2023-09-19T10:33:15;9.80;;;3.03;;
28335;SDS011;15592;53.656;7.276;2023-09-19T10:35:43;14.77;;;3.75;;
28335;SDS011;15592;53.656;7.276;2023-09-19T10:38:10;13.30;;;3.65;;
28335;SDS011;15592;53.656;7.276;2023-09-19T10:40:37;12.50;;;3.33;;
28335;SDS011;15592;53.656;7.276;2023-09-19T10:43:08;14.73;;;4.13;;
28335;SDS011;15592;53.656;7.276;2023-09-19T10:45:37;15.10;;;4.20;;
28335;SDS011;15592;53.656;7.276;2023-09-19T10:48:11;13.48;;;3.75;;
28335;SDS011;15592;53.656;7.276;2023-09-19T10:53:11;11.43;;;3.83;;
28335;SDS011;15592;53.656;7.276;2023-09-19T10:55:57;16.08;;;3.75;;
28335;SDS011;15592;53.656;7.276;2023-09-19T10:58:28;14.57;;;4.00;;
28335;SDS011;15592;53.656;7.276;2023-09-19T11:00:59;14.15;;;4.22;;
28335;SDS011;15592;53.656;7.276;2023-09-19T11:03:37;18.50;;;3.72;;
28335;SDS011;15592;53.656;7.276;2023-09-19T11:06:15;11.95;;;3.70;;
28335;SDS011;15592;53.656;7.276;2023-09-19T11:09:00;15.27;;;3.90;;
28335;SDS011;15592;53.656;7.276;2023-09-19T11:11:43;15.57;;;3.58;;
28335;SDS011;15592;53.656;7.276;2023-09-19T11:30:41;12.52;;;3.20;;
28335;SDS011;15592;53.656;7.276;2023-09-19T11:46:17;22.92;;;3.38;;
28335;SDS011;15592;53.656;7.276;2023-09-19T11:48:47;14.98;;;3.25;;
28335;SDS011;15592;53.656;7.276;2023-09-19T11:51:20;16.70;;;4.22;;
28335;SDS011;15592;53.656;7.276;2023-09-19T11:54:03;12.75;;;3.00;;
28335;SDS011;15592;53.656;7.276;2023-09-19T11:56:38;14.27;;;3.60;;
28335;SDS011;15592;53.656;7.276;2023-09-19T11:59:06;13.68;;;3.30;;
28335;SDS011;15592;53.656;7.276;2023-09-19T12:01:33;10.65;;;3.30;;
28335;SDS011;15592;53.656;7.276;2023-09-19T12:04:05;15.60;;;3.67;;
28335;SDS011;15592;53.656;7.276;2023-09-19T12:06:36;17.77;;;4.25;;
28335;SDS011;15592;53.656;7.276;2023-09-19T12:09:04;10.32;;;3.10;;
28335;SDS011;15592;53.656;7.276;2023-09-19T12:11:40;15.85;;;3.63;;
28335;SDS011;15592;53.656;7.276;2023-09-19T12:14:07;14.57;;;3.08;;
28335;SDS011;15592;53.656;7.276;2023-09-19T12:16:33;15.43;;;4.00;;
28335;SDS011;15592;53.656;7.276;2023-09-19T12:19:17;18.33;;;4.22;;
28335;SDS011;15592;53.656;7.276;2023-09-19T12:24:34;14.15;;;3.60;;
28335;SDS011;15592;53.656;7.276;2023-09-19T12:27:05;15.93;;;3.85;;
28335;SDS011;15592;53.656;7.276;2023-09-19T12:29:42;16.17;;;3.83;;
28335;SDS011;15592;53.656;7.276;2023-09-19T12:32:16;13.88;;;3.50;;
28335;SDS011;15592;53.656;7.276;2023-09-19T12:34:50;16.60;;;3.30;;
28335;SDS011;15592;53.656;7.276;2023-09-19T12:37:17;14.45;;;3.60;;
28335;SDS011;15592;53.656;7.276;2023-09-19T12:40:03;14.45;;;3.58;;
28335;SDS011;15592;53.656;7.276;2023-09-19T12:42:40;14.80;;;3.55;;
28335;SDS011;15592;53.656;7.276;2023-09-19T12:45:07;12.65;;;3.17;;
28335;SDS011;15592;53.656;7.276;2023-09-19T12:47:34;20.48;;;3.83;;
28335;SDS011;15592;53.656;7.276;2023-09-19T12:53:25;11.30;;;2.85;;
28335;SDS011;15592;53.656;7.276;2023-09-19T12:56:00;13.95;;;3.03;;
28335;SDS011;15592;53.656;7.276;2023-09-19T12:58:26;10.57;;;2.83;;
28335;SDS011;15592;53.656;7.276;2023-09-19T13:00:52;10.57;;;2.83;;
28335;SDS011;15592;53.656;7.276;2023-09-19T13:08:18;14.73;;;3.67;;
28335;SDS011;15592;53.656;7.276;2023-09-19T13:13:44;16.50;;;3.33;;
28335;SDS011;15592;53.656;7.276;2023-09-19T13:16:23;12.17;;;3.03;;
28335;SDS011;15592;53.656;7.276;2023-09-19T13:19:36;14.65;;;3.10;;
28335;SDS011;15592;53.656;7.276;2023-09-19T13:22:10;14.02;;;3.72;;
28335;SDS011;15592;53.656;7.276;2023-09-19T13:25:10;17.60;;;3.65;;
28335;SDS011;15592;53.656;7.276;2023-09-19T13:27:48;8.98;;;2.92;;
28335;SDS011;15592;53.656;7.276;2023-09-19T13:30:19;12.10;;;3.20;;
28335;SDS011;15592;53.656;7.276;2023-09-19T13:32:45;12.27;;;2.97;;
28335;SDS011;15592;53.656;7.276;2023-09-19T13:35:14;18.50;;;2.90;;
28335;SDS011;15592;53.656;7.276;2023-09-19T13:37:49;11.57;;;3.17;;
28335;SDS011;15592;53.656;7.276;2023-09-19T13:40:34;11.05;;;3.00;;
28335;SDS011;15592;53.656;7.276;2023-09-19T13:45:59;10.05;;;2.55;;
28335;SDS011;15592;53.656;7.276;2023-09-19T13:48:36;29.00;;;4.15;;
28335;SDS011;15592;53.656;7.276;2023-09-19T13:51:12;14.35;;;2.88;;
28335;SDS011;15592;53.656;7.276;2023-09-19T13:53:37;12.02;;;3.13;;
28335;SDS011;15592;53.656;7.276;2023-09-19T13:56:04;14.07;;;3.17;;
28335;SDS011;15592;53.656;7.276;2023-09-19T13:58:29;11.48;;;2.80;;
28335;SDS011;15592;53.656;7.276;2023-09-19T14:00:56;13.32;;;2.85;;
28335;SDS011;15592;53.656;7.276;2023-09-19T14:03:23;14.63;;;2.90;;
28335;SDS011;15592;53.656;7.276;2023-09-19T14:05:49;10.18;;;2.70;;
28335;SDS011;15592;53.656;7.276;2023-09-19T14:08:22;8.07;;;2.53;;
28335;SDS011;15592;53.656;7.276;2023-09-19T14:10:48;7.57;;;2.42;;
28335;SDS011;15592;53.656;7.276;2023-09-19T14:13:14;8.25;;;2.83;;
28335;SDS011;15592;53.656;7.276;2023-09-19T14:15:40;12.63;;;3.55;;
28335;SDS011;15592;53.656;7.276;2023-09-19T14:18:13;10.25;;;2.80;;
28335;SDS011;15592;53.656;7.276;2023-09-19T14:20:44;8.93;;;3.17;;
28335;SDS011;15592;53.656;7.276;2023-09-19T14:23:10;12.57;;;3.35;;
28335;SDS011;15592;53.656;7.276;2023-09-19T14:25:37;10.52;;;2.72;;
28335;SDS011;15592;53.656;7.276;2023-09-19T14:28:12;8.27;;;2.30;;
28335;SDS011;15592;53.656;7.276;2023-09-19T14:30:44;6.90;;;2.47;;
28335;SDS011;15592;53.656;7.276;2023-09-19T14:33:11;16.13;;;3.05;;
28335;SDS011;15592;53.656;7.276;2023-09-19T14:35:37;9.82;;;2.50;;
28335;SDS011;15592;53.656;7.276;2023-09-19T14:38:03;10.73;;;2.42;;
28335;SDS011;15592;53.656;7.276;2023-09-19T14:40:29;4.65;;;2.00;;
28335;SDS011;15592;53.656;7.276;2023-09-19T14:42:54;8.07;;;2.25;;
28335;SDS011;15592;53.656;7.276;2023-09-19T14:45:20;9.68;;;2.30;;
28335;SDS011;15592;53.656;7.276;2023-09-19T14:47:53;14.50;;;2.67;;
28335;SDS011;15592;53.656;7.276;2023-09-19T14:50:21;10.63;;;2.55;;
28335;SDS011;15592;53.656;7.276;2023-09-19T14:52:47;5.75;;;2.42;;
28335;SDS011;15592;53.656;7.276;2023-09-19T14:55:17;11.38;;;2.47;;
28335;SDS011;15592;53.656;7.276;2023-09-19T14:57:50;11.07;;;2.90;;
28335;SDS011;15592;53.656;7.276;2023-09-19T15:00:17;8.95;;;2.40;;
28335;SDS011;15592;53.656;7.276;2023-09-19T15:02:46;10.10;;;2.53;;
28335;SDS011;15592;53.656;7.276;2023-09-19T15:05:17;10.25;;;3.00;;
28335;SDS011;15592;53.656;7.276;2023-09-19T15:07:42;13.57;;;2.60;;
28335;SDS011;15592;53.656;7.276;2023-09-19T15:10:08;13.88;;;2.92;;
28335;SDS011;15592;53.656;7.276;2023-09-19T15:12:34;14.13;;;2.60;;
28335;SDS011;15592;53.656;7.276;2023-09-19T15:15:03;13.63;;;3.03;;
28335;SDS011;15592;53.656;7.276;2023-09-19T15:17:33;14.18;;;2.72;;
28335;SDS011;15592;53.656;7.276;2023-09-19T15:20:00;10.13;;;2.40;;
28335;SDS011;15592;53.656;7.276;2023-09-19T15:22:33;9.77;;;2.65;;
28335;SDS011;15592;53.656;7.276;2023-09-19T15:25:00;10.13;;;2.22;;
28335;SDS011;15592;53.656;7.276;2023-09-19T15:27:27;9.10;;;2.53;;
28335;SDS011;15592;53.656;7.276;2023-09-19T15:29:55;7.85;;;2.80;;
28335;SDS011;15592;53.656;7.276;2023-09-19T15:32:23;9.63;;;2.30;;
28335;SDS011;15592;53.656;7.276;2023-09-19T15:34:49;15.25;;;2.90;;
28335;SDS011;15592;53.656;7.276;2023-09-19T15:37:15;11.98;;;2.70;;
28335;SDS011;15592;53.656;7.276;2023-09-19T15:39:41;10.90;;;2.63;;
28335;SDS011;15592;53.656;7.276;2023-09-19T15:42:06;8.27;;;2.75;;
28335;SDS011;15592;53.656;7.276;2023-09-19T15:44:32;9.13;;;2.22;;
28335;SDS011;15592;53.656;7.276;2023-09-19T15:46:58;10.90;;;2.55;;
28335;SDS011;15592;53.656;7.276;2023-09-19T15:49:24;11.48;;;2.30;;
28335;SDS011;15592;53.656;7.276;2023-09-19T15:51:50;15.18;;;2.88;;
28335;SDS011;15592;53.656;7.276;2023-09-19T15:54:16;10.48;;;2.60;;
28335;SDS011;15592;53.656;7.276;2023-09-19T15:56:43;7.97;;;2.28;;
28335;SDS011;15592;53.656;7.276;2023-09-19T15:59:09;6.45;;;2.25;;
28335;SDS011;15592;53.656;7.276;2023-09-19T16:01:37;6.32;;;2.10;;
28335;SDS011;15592;53.656;7.276;2023-09-19T16:04:03;10.50;;;2.78;;
28335;SDS011;15592;53.656;7.276;2023-09-19T16:06:30;9.73;;;2.90;;
28335;SDS011;15592;53.656;7.276;2023-09-19T16:08:57;12.93;;;2.85;;
28335;SDS011;15592;53.656;7.276;2023-09-19T16:11:24;6.30;;;2.60;;
28335;SDS011;15592;53.656;7.276;2023-09-19T16:13:53;8.88;;;2.40;;
28335;SDS011;15592;53.656;7.276;2023-09-19T16:16:19;7.63;;;2.58;;